»·PEaware :: WAT169 KSNA-KDEN

WAT169 :: KSNA-KDEN

FLIGHT INFORMATION

Flight Status: Arrived
Operator:
Walker Air Transport
More flights by this operator :: More flights under this callsign
Pilot: Marty P. (27464)
Aircraft: BOEING 737-800
(B738)
More flights by this aircraft type
Origin: KSNA John Wayne-Orange Co
United States
Destination: KDEN Denver Intl
United States
More flights between these airports :: More routes between these airports
Route: +PIGGN2 AVRRY EED J236 TBC SHNPS TBARR1
File this flight plan on PilotEdge
Remarks:
Altitude:
(Current/Filed)
39,000ft
Speed:
(Current/Filed)
480kts
Departed: 01-Dec-20 09:49 AM
Arrived: 01-Dec-20 11:40 AM
Distance/Time
Traveled:
734nm/1:51
Distance/Time
To Go:
Arrived

Flight Plot

Page will automatically refresh every two minutes.

Flight plan parsing failed; only flown route is shown


Map Options




Map Legend


Flown Route
Filed Route
Departure Airport
Arrival Airport
Navaid (VOR, NDB)
Fix

Horizontal Profiles

Position Reports

Time Latitude Longitude Heading Altitude Ground
Speed
01-Dec-20 09:08 33.675005 -117.865072 0 66ft 0kts
01-Dec-20 09:09 33.675005 -117.865072 118 66ft 0kts
01-Dec-20 09:10 33.675005 -117.865072 118 66ft 0kts
01-Dec-20 09:11 33.675005 -117.865072 118 66ft 0kts
01-Dec-20 09:12 33.675005 -117.865072 118 66ft 0kts
01-Dec-20 09:13 33.675005 -117.865072 118 66ft 0kts
01-Dec-20 09:14 33.675005 -117.865072 118 66ft 0kts
01-Dec-20 09:15 33.675005 -117.865072 118 66ft 0kts
01-Dec-20 09:16 33.675005 -117.865072 118 66ft 0kts
01-Dec-20 09:17 33.675005 -117.865072 118 66ft 0kts
01-Dec-20 09:18 33.675005 -117.865072 118 66ft 0kts
01-Dec-20 09:19 33.675005 -117.865072 118 66ft 0kts
01-Dec-20 09:20 33.675005 -117.865072 118 66ft 0kts
01-Dec-20 09:20 33.675005 -117.865072 118 66ft 0kts
01-Dec-20 09:22 33.675005 -117.865073 118 66ft 0kts
01-Dec-20 09:22 33.675005 -117.865073 118 66ft 0kts
01-Dec-20 09:24 33.675005 -117.865073 118 66ft 0kts
01-Dec-20 09:24 33.675005 -117.865073 118 66ft 0kts
01-Dec-20 09:26 33.675005 -117.865073 118 66ft 0kts
01-Dec-20 09:26 33.675005 -117.865073 118 66ft 0kts
01-Dec-20 09:27 33.675005 -117.865073 118 66ft 0kts
01-Dec-20 09:28 33.675005 -117.865073 118 66ft 0kts
01-Dec-20 09:29 33.675005 -117.865073 118 66ft 0kts
01-Dec-20 09:30 33.675005 -117.865073 118 66ft 0kts
01-Dec-20 09:31 33.675005 -117.865073 118 66ft 0kts
01-Dec-20 09:32 33.675005 -117.865073 118 66ft 0kts
01-Dec-20 09:33 33.675005 -117.865073 118 66ft 0kts
01-Dec-20 09:34 33.675005 -117.865073 118 66ft 0kts
01-Dec-20 09:35 33.675005 -117.865073 118 66ft 0kts
01-Dec-20 09:36 33.675005 -117.865073 118 66ft 0kts
01-Dec-20 09:37 33.675005 -117.865073 118 66ft 0kts
01-Dec-20 09:38 33.675005 -117.865073 118 66ft 0kts
01-Dec-20 09:39 33.675005 -117.865073 118 66ft 0kts
01-Dec-20 09:40 33.675005 -117.865073 118 66ft 0kts
01-Dec-20 09:41 33.675150 -117.865400 107 66ft 2kts
01-Dec-20 09:42 33.674964 -117.865941 25 66ft 1kts
01-Dec-20 09:43 33.674922 -117.865964 27 66ft 0kts
01-Dec-20 09:44 33.674922 -117.865964 27 66ft 0kts
01-Dec-20 09:45 33.677917 -117.864054 27 66ft 22kts
01-Dec-20 09:46 33.680590 -117.862912 292 66ft 1kts
01-Dec-20 09:47 33.681169 -117.864248 297 66ft 16kts
01-Dec-20 09:48 33.677914 -117.867440 207 66ft 94kts
01-Dec-20 09:49 33.635193 -117.890685 191 1877ft 196kts
01-Dec-20 09:50 33.571008 -117.894597 167 4504ft 247kts
01-Dec-20 09:51 33.510897 -117.853206 131 7995ft 263kts
01-Dec-20 09:52 33.478535 -117.772056 94 10885ft 303kts
01-Dec-20 09:54 33.505495 -117.646468 56 13509ft 358kts
01-Dec-20 09:54 33.547541 -117.558730 56 15974ft 373kts
01-Dec-20 09:55 33.579784 -117.437609 83 18584ft 402kts
01-Dec-20 09:56 33.579270 -117.300587 84 20941ft 417kts
01-Dec-20 09:57 33.594667 -117.162287 72 23038ft 424kts
01-Dec-20 09:58 33.619563 -117.022079 80 24927ft 439kts
01-Dec-20 09:59 33.623434 -116.872949 86 26633ft 452kts
01-Dec-20 10:00 33.621355 -116.721118 87 28201ft 461kts
01-Dec-20 10:01 33.617776 -116.566107 88 29693ft 468kts
01-Dec-20 10:02 33.613600 -116.408626 87 30894ft 477kts
01-Dec-20 10:03 33.609099 -116.249019 88 32236ft 479kts
01-Dec-20 10:04 33.606049 -116.088970 82 33501ft 477kts
01-Dec-20 10:05 33.636866 -115.937251 65 34677ft 467kts
01-Dec-20 10:06 33.683004 -115.791126 64 35682ft 469kts
01-Dec-20 10:07 33.728910 -115.645835 61 36901ft 461kts
01-Dec-20 10:08 33.799174 -115.521869 37 37679ft 444kts
01-Dec-20 10:09 33.890539 -115.423183 34 38413ft 443kts
01-Dec-20 10:10 33.982840 -115.324612 34 39045ft 444kts
01-Dec-20 10:11 34.075504 -115.225408 34 39219ft 453kts
01-Dec-20 10:12 34.171028 -115.122810 35 39209ft 465kts
01-Dec-20 10:13 34.268066 -115.018196 35 39219ft 471kts
01-Dec-20 10:14 34.366080 -114.912190 35 39219ft 475kts
01-Dec-20 10:15 34.464562 -114.805334 35 39219ft 477kts
01-Dec-20 10:16 34.563177 -114.697990 35 39219ft 478kts
01-Dec-20 10:17 34.661730 -114.590364 35 39220ft 478kts
01-Dec-20 10:18 34.752739 -114.471321 46 39218ft 488kts
01-Dec-20 10:19 34.826235 -114.330809 53 39219ft 495kts
01-Dec-20 10:20 34.893308 -114.184516 54 39223ft 495kts
01-Dec-20 10:21 34.958837 -114.036958 55 39240ft 495kts
01-Dec-20 10:22 35.023815 -113.888986 54 39247ft 496kts
01-Dec-20 10:23 35.088574 -113.740659 54 39246ft 496kts
01-Dec-20 10:24 35.153365 -113.591532 54 39247ft 498kts
01-Dec-20 10:25 35.217941 -113.442212 54 39246ft 498kts
01-Dec-20 10:26 35.282590 -113.292064 55 39246ft 498kts
01-Dec-20 10:27 35.347058 -113.141688 55 39254ft 498kts
01-Dec-20 10:28 35.411108 -112.991596 54 39265ft 498kts
01-Dec-20 10:29 35.474848 -112.841545 55 39265ft 498kts
01-Dec-20 10:30 35.538587 -112.690816 54 39265ft 498kts
01-Dec-20 10:31 35.602133 -112.539863 54 39278ft 498kts
01-Dec-20 10:32 35.665546 -112.388543 54 39282ft 498kts
01-Dec-20 10:33 35.728277 -112.238192 55 39283ft 497kts
01-Dec-20 10:34 35.791078 -112.086974 54 39283ft 497kts
01-Dec-20 10:35 35.853787 -111.935269 54 39283ft 496kts
01-Dec-20 10:36 35.916110 -111.783791 54 39283ft 497kts
01-Dec-20 10:37 35.978263 -111.632030 55 39283ft 497kts
01-Dec-20 10:38 36.040548 -111.479231 55 39282ft 497kts
01-Dec-20 10:39 36.102081 -111.327567 55 39278ft 496kts
01-Dec-20 10:40 36.165982 -111.177067 49 39275ft 489kts
01-Dec-20 10:41 36.239167 -111.035200 49 39274ft 490kts
01-Dec-20 10:42 36.311704 -110.892089 49 39267ft 491kts
01-Dec-20 10:43 36.383988 -110.748176 49 39264ft 491kts
01-Dec-20 10:44 36.455948 -110.604117 49 39265ft 492kts
01-Dec-20 10:45 36.527809 -110.459590 49 39267ft 492kts
01-Dec-20 10:46 36.599461 -110.314850 50 39271ft 492kts
01-Dec-20 10:47 36.670958 -110.169815 50 39274ft 492kts
01-Dec-20 10:48 36.742142 -110.024779 50 39265ft 491kts
01-Dec-20 10:49 36.813264 -109.879257 50 39256ft 491kts
01-Dec-20 10:50 36.884307 -109.733232 51 39256ft 491kts
01-Dec-20 10:51 36.954837 -109.587634 51 39255ft 491kts
01-Dec-20 10:52 37.025290 -109.441555 51 39255ft 491kts
01-Dec-20 10:53 37.095762 -109.294803 52 39256ft 491kts
01-Dec-20 10:54 37.166065 -109.147764 52 39253ft 492kts
01-Dec-20 10:55 37.236409 -108.999967 52 39217ft 493kts
01-Dec-20 10:57 37.306490 -108.852055 52 39201ft 493kts
01-Dec-20 10:58 37.376444 -108.703748 53 39201ft 493kts
01-Dec-20 10:59 37.445973 -108.555682 53 39201ft 493kts
01-Dec-20 11:00 37.515617 -108.406691 53 39201ft 493kts
01-Dec-20 11:01 37.584719 -108.258191 54 39201ft 493kts
01-Dec-20 11:02 37.653679 -108.109322 55 39201ft 493kts
01-Dec-20 11:03 37.722660 -107.959724 55 39136ft 494kts
01-Dec-20 11:04 37.791480 -107.809776 55 39146ft 493kts
01-Dec-20 11:05 37.859874 -107.660070 55 39173ft 493kts
01-Dec-20 11:06 37.928145 -107.509945 55 39200ft 494kts
01-Dec-20 11:07 37.996247 -107.359489 55 39201ft 495kts
01-Dec-20 11:08 38.064073 -107.208953 55 39201ft 496kts
01-Dec-20 11:09 38.131205 -107.057207 61 39197ft 500kts
01-Dec-20 11:10 38.208134 -106.914880 44 39176ft 490kts
01-Dec-20 11:11 38.296310 -106.783277 44 39150ft 494kts
01-Dec-20 11:12 38.384864 -106.649068 44 39153ft 496kts
01-Dec-20 11:13 38.473174 -106.514163 44 39155ft 498kts
01-Dec-20 11:14 38.560874 -106.379413 44 38426ft 487kts
01-Dec-20 11:14 38.631479 -106.270520 45 36292ft 472kts
01-Dec-20 11:16 38.719519 -106.134698 45 33646ft 469kts
01-Dec-20 11:16 38.789119 -106.027856 45 31564ft 472kts
01-Dec-20 11:18 38.889571 -105.873611 47 28637ft 492kts
01-Dec-20 11:18 38.962013 -105.760844 48 26548ft 490kts
01-Dec-20 11:19 39.044625 -105.632301 50 24023ft 441kts
01-Dec-20 11:20 39.118329 -105.517174 49 21515ft 395kts
01-Dec-20 11:21 39.184429 -105.412501 48 18527ft 361kts
01-Dec-20 11:22 39.243784 -105.317953 48 16980ft 312kts
01-Dec-20 11:23 39.287784 -105.220948 74 16739ft 319kts
01-Dec-20 11:24 39.301396 -105.113104 79 15725ft 293kts
01-Dec-20 11:25 39.313523 -105.009840 77 14984ft 287kts
01-Dec-20 11:26 39.332085 -104.907231 73 14353ft 290kts
01-Dec-20 11:27 39.353496 -104.814365 68 13101ft 259kts
01-Dec-20 11:28 39.380708 -104.729350 45 12015ft 259kts
01-Dec-20 11:29 39.437999 -104.692165 3 10462ft 218kts
01-Dec-20 11:30 39.491917 -104.680157 31 10022ft 196kts
01-Dec-20 11:31 39.542837 -104.664276 359 9998ft 191kts
01-Dec-20 11:32 39.595369 -104.663378 358 9999ft 190kts
01-Dec-20 11:33 39.647827 -104.662771 359 9052ft 184kts
01-Dec-20 11:34 39.699217 -104.662170 0 8019ft 185kts
01-Dec-20 11:35 39.745523 -104.661601 2 7109ft 153kts
01-Dec-20 11:36 39.787510 -104.661036 3 6280ft 150kts
01-Dec-20 11:37 39.828666 -104.660599 5 5485ft 145kts
01-Dec-20 11:38 39.856693 -104.660171 1 5444ft 53kts
01-Dec-20 11:39 39.861062 -104.663515 270 5444ft 16kts
01-Dec-20 11:40 39.861301 -104.670404 270 5444ft 22kts
01-Dec-20 11:41 39.861636 -104.677363 346 5444ft 10kts
01-Dec-20 11:42 39.862561 -104.677344 359 5444ft 0kts
01-Dec-20 11:43 39.862561 -104.677344 359 5444ft 0kts
01-Dec-20 11:44 39.862561 -104.677344 359 5444ft 0kts
01-Dec-20 11:45 39.862561 -104.677344 359 5444ft 0kts

Navigation Log

Ident Type
Flight plan parsing failed, navigation log unavailable